Etusivu
METAR-TAF:

METAR-TAF

Lentoasemat :

Selawik, Alaska, Yhdysvallat

Leveyspiiri: 66-37N, Pituuspiiri: 160-00W, korkeus merenpinnasta: 8 m

Tämänhetkinen sää

Tämä raportti tehtiin 53 minuuttia sitten, kello 06.56 UTC
Tuuli 4 kn kaakosta
Lämpötila 14°C
Kosteus 82%
Ilmanpaine 999 hPa
Näkyvyys: 16.1 km
Pilvistä 8000 ft:n korkeudessa
heikkoa sadetta

METAR: PASK 140656Z AUTO 14004KT 10SM -RA OVC080 14/11 A2950 RMK AO2 RAB41 SLP985 P0000 T01440111

Aika: 23:49 (07:49 UTC)


TAF: puuttuu

Säähavainnot ja -ennusteet yli 4000 lentoasemalta (METAR- ja TAF-raportit).

Käytössä olevat sääasemat on merkitty karttaan keltaisilla ja punaisilla pisteillä.

Aseta hiiri pisteen päälle nähdäksesi sääaseman nimen.

Klikkaa sitten nähdäksesi säähavainnot ja -ennusteet.

Kartan vaihtaminen: klikkaa mustalla rastilla varustettuja vihreitä pisteitä, niin voit zoomata sisään; viivalla varustettua vihreää pistettä, niin voit zoomata ulos tai vihreitä nuolia, niin pääset viereisille kartoille.


METAR-TAF: